sensor_id;sensor_type;location;lat;lon;timestamp;temperature;humidity
7411;DHT22;3747;48.628;9.058;2023-05-10T00:02:17;12.20;99.90
7411;DHT22;3747;48.628;9.058;2023-05-10T00:04:44;12.20;99.90
7411;DHT22;3747;48.628;9.058;2023-05-10T00:07:10;12.20;99.90
7411;DHT22;3747;48.628;9.058;2023-05-10T00:09:37;12.20;99.90
7411;DHT22;3747;48.628;9.058;2023-05-10T00:12:05;12.20;99.90
7411;DHT22;3747;48.628;9.058;2023-05-10T00:14:32;12.20;99.90
7411;DHT22;3747;48.628;9.058;2023-05-10T00:16:59;12.20;99.90
7411;DHT22;3747;48.628;9.058;2023-05-10T00:19:25;12.10;99.90
7411;DHT22;3747;48.628;9.058;2023-05-10T00:21:52;12.10;99.90
7411;DHT22;3747;48.628;9.058;2023-05-10T00:24:19;12.10;99.90
7411;DHT22;3747;48.628;9.058;2023-05-10T00:26:46;12.00;99.90
7411;DHT22;3747;48.628;9.058;2023-05-10T00:29:14;11.90;99.90
7411;DHT22;3747;48.628;9.058;2023-05-10T00:31:40;11.90;99.90
7411;DHT22;3747;48.628;9.058;2023-05-10T00:34:07;11.80;99.90
7411;DHT22;3747;48.628;9.058;2023-05-10T00:36:34;11.80;99.90
7411;DHT22;3747;48.628;9.058;2023-05-10T00:39:00;11.80;99.90
7411;DHT22;3747;48.628;9.058;2023-05-10T00:41:29;11.70;99.90
7411;DHT22;3747;48.628;9.058;2023-05-10T00:43:57;11.70;99.90
7411;DHT22;3747;48.628;9.058;2023-05-10T00:46:25;11.70;99.90
7411;DHT22;3747;48.628;9.058;2023-05-10T00:48:53;11.70;99.90
7411;DHT22;3747;48.628;9.058;2023-05-10T00:51:20;11.60;99.90
7411;DHT22;3747;48.628;9.058;2023-05-10T00:53:48;11.60;99.90
7411;DHT22;3747;48.628;9.058;2023-05-10T00:56:16;11.60;99.90
7411;DHT22;3747;48.628;9.058;2023-05-10T00:58:43;11.60;99.90
7411;DHT22;3747;48.628;9.058;2023-05-10T01:01:10;11.60;99.90
7411;DHT22;3747;48.628;9.058;2023-05-10T01:03:39;11.60;99.90
7411;DHT22;3747;48.628;9.058;2023-05-10T01:06:07;11.60;99.90
7411;DHT22;3747;48.628;9.058;2023-05-10T01:08:35;11.60;99.90
7411;DHT22;3747;48.628;9.058;2023-05-10T01:11:02;11.60;99.90
7411;DHT22;3747;48.628;9.058;2023-05-10T01:13:32;11.50;99.90
7411;DHT22;3747;48.628;9.058;2023-05-10T01:15:59;11.50;99.90
7411;DHT22;3747;48.628;9.058;2023-05-10T01:18:28;11.50;99.90
7411;DHT22;3747;48.628;9.058;2023-05-10T01:21:07;11.50;99.90
7411;DHT22;3747;48.628;9.058;2023-05-10T01:23:50;11.50;99.90
7411;DHT22;3747;48.628;9.058;2023-05-10T01:29:30;11.50;99.90
7411;DHT22;3747;48.628;9.058;2023-05-10T01:32:21;11.50;99.90
7411;DHT22;3747;48.628;9.058;2023-05-10T01:34:55;11.50;99.90
7411;DHT22;3747;48.628;9.058;2023-05-10T01:37:31;11.50;99.90
7411;DHT22;3747;48.628;9.058;2023-05-10T01:40:02;11.40;99.90
7411;DHT22;3747;48.628;9.058;2023-05-10T01:42:40;11.40;99.90
7411;DHT22;3747;48.628;9.058;2023-05-10T01:45:14;11.40;99.90
7411;DHT22;3747;48.628;9.058;2023-05-10T01:47:46;11.30;99.90
7411;DHT22;3747;48.628;9.058;2023-05-10T01:50:19;11.30;99.90
7411;DHT22;3747;48.628;9.058;2023-05-10T01:52:52;11.30;99.90
7411;DHT22;3747;48.628;9.058;2023-05-10T01:55:21;11.30;99.90
7411;DHT22;3747;48.628;9.058;2023-05-10T01:57:55;11.20;99.90
7411;DHT22;3747;48.628;9.058;2023-05-10T02:00:23;11.20;99.90
7411;DHT22;3747;48.628;9.058;2023-05-10T02:02:52;11.20;99.90
7411;DHT22;3747;48.628;9.058;2023-05-10T02:05:19;11.10;99.90
7411;DHT22;3747;48.628;9.058;2023-05-10T02:07:47;11.10;99.90
7411;DHT22;3747;48.628;9.058;2023-05-10T02:10:15;11.00;99.90
7411;DHT22;3747;48.628;9.058;2023-05-10T02:12:44;11.00;99.90
7411;DHT22;3747;48.628;9.058;2023-05-10T02:15:15;11.00;99.90
7411;DHT22;3747;48.628;9.058;2023-05-10T02:17:42;11.00;99.90
7411;DHT22;3747;48.628;9.058;2023-05-10T02:20:11;10.90;99.90
7411;DHT22;3747;48.628;9.058;2023-05-10T02:22:39;11.00;99.90
7411;DHT22;3747;48.628;9.058;2023-05-10T02:25:07;11.00;99.90
7411;DHT22;3747;48.628;9.058;2023-05-10T02:27:35;11.00;99.90
7411;DHT22;3747;48.628;9.058;2023-05-10T02:30:05;10.90;99.90
7411;DHT22;3747;48.628;9.058;2023-05-10T02:32:33;11.00;99.90
7411;DHT22;3747;48.628;9.058;2023-05-10T02:35:01;10.90;99.90
7411;DHT22;3747;48.628;9.058;2023-05-10T02:37:30;10.90;99.90
7411;DHT22;3747;48.628;9.058;2023-05-10T02:39:58;10.80;99.90
7411;DHT22;3747;48.628;9.058;2023-05-10T02:42:26;10.80;99.90
7411;DHT22;3747;48.628;9.058;2023-05-10T02:44:56;10.70;99.90
7411;DHT22;3747;48.628;9.058;2023-05-10T02:47:23;10.70;99.90
7411;DHT22;3747;48.628;9.058;2023-05-10T02:49:50;10.70;99.90
7411;DHT22;3747;48.628;9.058;2023-05-10T02:52:22;10.70;99.90
7411;DHT22;3747;48.628;9.058;2023-05-10T02:54:54;10.80;99.90
7411;DHT22;3747;48.628;9.058;2023-05-10T02:57:26;10.80;99.90
7411;DHT22;3747;48.628;9.058;2023-05-10T02:59:53;10.80;99.90
7411;DHT22;3747;48.628;9.058;2023-05-10T03:02:20;10.90;99.90
7411;DHT22;3747;48.628;9.058;2023-05-10T03:04:47;10.90;99.90
7411;DHT22;3747;48.628;9.058;2023-05-10T03:07:14;10.90;99.90
7411;DHT22;3747;48.628;9.058;2023-05-10T03:09:42;10.90;99.90
7411;DHT22;3747;48.628;9.058;2023-05-10T03:12:14;10.90;99.90
7411;DHT22;3747;48.628;9.058;2023-05-10T03:14:48;10.90;99.90
7411;DHT22;3747;48.628;9.058;2023-05-10T03:17:20;10.90;99.90
7411;DHT22;3747;48.628;9.058;2023-05-10T03:19:53;10.90;99.90
7411;DHT22;3747;48.628;9.058;2023-05-10T03:22:24;11.00;99.90
7411;DHT22;3747;48.628;9.058;2023-05-10T03:24:54;11.00;99.90
7411;DHT22;3747;48.628;9.058;2023-05-10T03:27:25;10.90;99.90
7411;DHT22;3747;48.628;9.058;2023-05-10T03:29:54;10.90;99.90
7411;DHT22;3747;48.628;9.058;2023-05-10T03:32:22;10.90;99.90
7411;DHT22;3747;48.628;9.058;2023-05-10T03:34:48;10.90;99.90
7411;DHT22;3747;48.628;9.058;2023-05-10T03:37:15;10.90;99.90
7411;DHT22;3747;48.628;9.058;2023-05-10T03:39:42;10.80;99.90
7411;DHT22;3747;48.628;9.058;2023-05-10T03:42:08;10.80;99.90
7411;DHT22;3747;48.628;9.058;2023-05-10T03:44:38;10.70;99.90
7411;DHT22;3747;48.628;9.058;2023-05-10T03:47:05;10.80;99.90
7411;DHT22;3747;48.628;9.058;2023-05-10T03:49:32;10.80;99.90
7411;DHT22;3747;48.628;9.058;2023-05-10T03:51:58;10.80;99.90
7411;DHT22;3747;48.628;9.058;2023-05-10T03:54:25;10.80;99.90
7411;DHT22;3747;48.628;9.058;2023-05-10T03:56:52;10.80;99.90
7411;DHT22;3747;48.628;9.058;2023-05-10T03:59:18;10.70;99.90
7411;DHT22;3747;48.628;9.058;2023-05-10T04:01:46;10.70;99.90
7411;DHT22;3747;48.628;9.058;2023-05-10T04:04:13;10.70;99.90
7411;DHT22;3747;48.628;9.058;2023-05-10T04:06:40;10.70;99.90
7411;DHT22;3747;48.628;9.058;2023-05-10T04:09:06;10.70;99.90
7411;DHT22;3747;48.628;9.058;2023-05-10T04:11:33;10.70;99.90
7411;DHT22;3747;48.628;9.058;2023-05-10T04:14:00;10.70;99.90
7411;DHT22;3747;48.628;9.058;2023-05-10T04:16:27;10.70;99.90
7411;DHT22;3747;48.628;9.058;2023-05-10T04:18:55;10.70;99.90
7411;DHT22;3747;48.628;9.058;2023-05-10T04:21:22;10.70;99.90
7411;DHT22;3747;48.628;9.058;2023-05-10T04:23:48;10.70;99.90
7411;DHT22;3747;48.628;9.058;2023-05-10T04:26:15;10.80;99.90
7411;DHT22;3747;48.628;9.058;2023-05-10T04:28:42;10.80;99.90
7411;DHT22;3747;48.628;9.058;2023-05-10T04:31:09;10.80;99.90
7411;DHT22;3747;48.628;9.058;2023-05-10T04:33:37;10.70;99.90
7411;DHT22;3747;48.628;9.058;2023-05-10T04:36:05;10.80;99.90
7411;DHT22;3747;48.628;9.058;2023-05-10T04:38:32;10.80;99.90
7411;DHT22;3747;48.628;9.058;2023-05-10T04:41:06;10.80;99.90
7411;DHT22;3747;48.628;9.058;2023-05-10T04:43:32;10.90;99.90
7411;DHT22;3747;48.628;9.058;2023-05-10T04:45:59;10.90;99.90
7411;DHT22;3747;48.628;9.058;2023-05-10T04:48:26;10.90;99.90
7411;DHT22;3747;48.628;9.058;2023-05-10T04:50:53;10.90;99.90
7411;DHT22;3747;48.628;9.058;2023-05-10T04:53:21;11.00;99.90
7411;DHT22;3747;48.628;9.058;2023-05-10T04:55:47;11.00;99.90
7411;DHT22;3747;48.628;9.058;2023-05-10T04:58:14;11.00;99.90
7411;DHT22;3747;48.628;9.058;2023-05-10T05:00:41;11.00;99.90
7411;DHT22;3747;48.628;9.058;2023-05-10T05:03:08;11.10;99.90
7411;DHT22;3747;48.628;9.058;2023-05-10T05:05:35;11.00;99.90
7411;DHT22;3747;48.628;9.058;2023-05-10T05:08:01;11.10;99.90
7411;DHT22;3747;48.628;9.058;2023-05-10T05:10:30;11.10;99.90
7411;DHT22;3747;48.628;9.058;2023-05-10T05:12:56;11.10;99.90
7411;DHT22;3747;48.628;9.058;2023-05-10T05:15:23;11.20;99.90
7411;DHT22;3747;48.628;9.058;2023-05-10T05:17:50;11.20;99.90
7411;DHT22;3747;48.628;9.058;2023-05-10T05:20:17;11.20;99.90
7411;DHT22;3747;48.628;9.058;2023-05-10T05:22:44;11.20;99.90
7411;DHT22;3747;48.628;9.058;2023-05-10T05:25:11;11.20;99.90
7411;DHT22;3747;48.628;9.058;2023-05-10T05:27:39;11.20;99.90
7411;DHT22;3747;48.628;9.058;2023-05-10T05:30:07;11.30;99.90
7411;DHT22;3747;48.628;9.058;2023-05-10T05:32:34;11.30;99.90
7411;DHT22;3747;48.628;9.058;2023-05-10T05:35:01;11.30;99.90
7411;DHT22;3747;48.628;9.058;2023-05-10T05:37:27;11.30;99.90
7411;DHT22;3747;48.628;9.058;2023-05-10T05:39:54;11.30;99.90
7411;DHT22;3747;48.628;9.058;2023-05-10T05:42:21;11.40;99.90
7411;DHT22;3747;48.628;9.058;2023-05-10T05:44:48;11.40;99.90
7411;DHT22;3747;48.628;9.058;2023-05-10T05:47:15;11.40;99.90
7411;DHT22;3747;48.628;9.058;2023-05-10T05:49:42;11.50;99.90
7411;DHT22;3747;48.628;9.058;2023-05-10T05:52:11;11.60;99.90
7411;DHT22;3747;48.628;9.058;2023-05-10T05:54:37;11.70;99.90
7411;DHT22;3747;48.628;9.058;2023-05-10T05:57:04;11.70;99.90
7411;DHT22;3747;48.628;9.058;2023-05-10T05:59:31;11.80;99.90
7411;DHT22;3747;48.628;9.058;2023-05-10T06:01:59;11.80;99.90
7411;DHT22;3747;48.628;9.058;2023-05-10T06:04:26;11.90;99.90
7411;DHT22;3747;48.628;9.058;2023-05-10T06:06:52;11.90;99.90
7411;DHT22;3747;48.628;9.058;2023-05-10T06:09:19;11.90;99.90
7411;DHT22;3747;48.628;9.058;2023-05-10T06:11:46;11.90;99.90
7411;DHT22;3747;48.628;9.058;2023-05-10T06:14:13;12.00;99.90
7411;DHT22;3747;48.628;9.058;2023-05-10T06:16:40;11.90;99.90
7411;DHT22;3747;48.628;9.058;2023-05-10T06:19:08;12.00;99.90
7411;DHT22;3747;48.628;9.058;2023-05-10T06:21:34;12.00;99.90
7411;DHT22;3747;48.628;9.058;2023-05-10T06:24:01;12.20;99.90
7411;DHT22;3747;48.628;9.058;2023-05-10T06:26:28;12.20;99.90
7411;DHT22;3747;48.628;9.058;2023-05-10T06:28:55;12.20;99.90
7411;DHT22;3747;48.628;9.058;2023-05-10T06:31:21;12.20;99.90
7411;DHT22;3747;48.628;9.058;2023-05-10T06:33:48;12.20;99.90
7411;DHT22;3747;48.628;9.058;2023-05-10T06:36:16;12.20;99.90
7411;DHT22;3747;48.628;9.058;2023-05-10T06:38:43;12.40;99.90
7411;DHT22;3747;48.628;9.058;2023-05-10T06:41:09;12.50;99.90
7411;DHT22;3747;48.628;9.058;2023-05-10T06:43:36;12.60;99.90
7411;DHT22;3747;48.628;9.058;2023-05-10T06:46:05;12.70;99.90
7411;DHT22;3747;48.628;9.058;2023-05-10T06:48:35;12.90;99.90
7411;DHT22;3747;48.628;9.058;2023-05-10T06:51:02;13.00;99.90
7411;DHT22;3747;48.628;9.058;2023-05-10T06:53:30;13.00;99.90
7411;DHT22;3747;48.628;9.058;2023-05-10T06:55:56;13.10;99.90
7411;DHT22;3747;48.628;9.058;2023-05-10T06:58:23;13.10;99.90
7411;DHT22;3747;48.628;9.058;2023-05-10T07:00:50;13.10;99.90
7411;DHT22;3747;48.628;9.058;2023-05-10T07:03:16;13.20;99.90
7411;DHT22;3747;48.628;9.058;2023-05-10T07:05:43;13.30;99.90
7411;DHT22;3747;48.628;9.058;2023-05-10T07:08:10;13.30;99.90
7411;DHT22;3747;48.628;9.058;2023-05-10T07:10:38;13.20;99.90
7411;DHT22;3747;48.628;9.058;2023-05-10T07:13:04;13.40;99.90
7411;DHT22;3747;48.628;9.058;2023-05-10T07:15:31;13.50;99.90
7411;DHT22;3747;48.628;9.058;2023-05-10T07:17:58;13.60;99.90
7411;DHT22;3747;48.628;9.058;2023-05-10T07:20:25;13.50;99.90
7411;DHT22;3747;48.628;9.058;2023-05-10T07:22:52;13.60;99.90
7411;DHT22;3747;48.628;9.058;2023-05-10T07:25:19;13.70;99.90
7411;DHT22;3747;48.628;9.058;2023-05-10T07:27:47;13.70;99.90
7411;DHT22;3747;48.628;9.058;2023-05-10T07:30:14;13.70;99.90
7411;DHT22;3747;48.628;9.058;2023-05-10T07:32:41;13.60;99.90
7411;DHT22;3747;48.628;9.058;2023-05-10T07:35:08;13.60;99.90
7411;DHT22;3747;48.628;9.058;2023-05-10T07:37:35;13.60;99.90
7411;DHT22;3747;48.628;9.058;2023-05-10T07:40:02;13.50;99.90
7411;DHT22;3747;48.628;9.058;2023-05-10T07:42:29;13.50;99.90
7411;DHT22;3747;48.628;9.058;2023-05-10T07:44:57;13.60;99.90
7411;DHT22;3747;48.628;9.058;2023-05-10T07:47:23;13.80;99.90
7411;DHT22;3747;48.628;9.058;2023-05-10T07:49:50;14.00;99.90
7411;DHT22;3747;48.628;9.058;2023-05-10T07:52:17;14.00;99.90
7411;DHT22;3747;48.628;9.058;2023-05-10T07:54:43;13.90;99.90
7411;DHT22;3747;48.628;9.058;2023-05-10T07:57:10;13.90;99.90
7411;DHT22;3747;48.628;9.058;2023-05-10T07:59:40;13.80;99.90
7411;DHT22;3747;48.628;9.058;2023-05-10T08:02:08;13.90;99.90
7411;DHT22;3747;48.628;9.058;2023-05-10T08:04:34;14.10;99.90
7411;DHT22;3747;48.628;9.058;2023-05-10T08:07:01;14.20;99.90
7411;DHT22;3747;48.628;9.058;2023-05-10T08:09:28;14.30;99.90
7411;DHT22;3747;48.628;9.058;2023-05-10T08:11:54;14.20;99.90
7411;DHT22;3747;48.628;9.058;2023-05-10T08:14:21;14.40;99.90
7411;DHT22;3747;48.628;9.058;2023-05-10T08:16:48;14.70;99.90
7411;DHT22;3747;48.628;9.058;2023-05-10T08:19:16;14.80;99.90
7411;DHT22;3747;48.628;9.058;2023-05-10T08:21:44;14.90;99.90
7411;DHT22;3747;48.628;9.058;2023-05-10T08:24:11;15.10;99.90
7411;DHT22;3747;48.628;9.058;2023-05-10T08:26:38;15.20;99.90
7411;DHT22;3747;48.628;9.058;2023-05-10T08:29:05;15.40;99.90
7411;DHT22;3747;48.628;9.058;2023-05-10T08:31:32;15.50;99.90
7411;DHT22;3747;48.628;9.058;2023-05-10T08:33:58;15.20;99.90
7411;DHT22;3747;48.628;9.058;2023-05-10T08:36:27;15.00;99.90
7411;DHT22;3747;48.628;9.058;2023-05-10T08:38:54;14.90;99.90
7411;DHT22;3747;48.628;9.058;2023-05-10T08:41:21;15.00;99.90
7411;DHT22;3747;48.628;9.058;2023-05-10T08:43:50;15.00;99.90
7411;DHT22;3747;48.628;9.058;2023-05-10T08:46:17;15.10;99.90
7411;DHT22;3747;48.628;9.058;2023-05-10T08:48:45;15.00;99.90
7411;DHT22;3747;48.628;9.058;2023-05-10T08:51:13;14.60;99.90
7411;DHT22;3747;48.628;9.058;2023-05-10T08:53:41;14.60;99.90
7411;DHT22;3747;48.628;9.058;2023-05-10T08:56:08;14.70;99.90
7411;DHT22;3747;48.628;9.058;2023-05-10T08:58:36;14.60;99.90
7411;DHT22;3747;48.628;9.058;2023-05-10T09:01:03;14.70;99.90
7411;DHT22;3747;48.628;9.058;2023-05-10T09:03:31;14.70;99.90
7411;DHT22;3747;48.628;9.058;2023-05-10T09:05:58;14.70;99.90
7411;DHT22;3747;48.628;9.058;2023-05-10T09:08:26;14.70;99.90
7411;DHT22;3747;48.628;9.058;2023-05-10T09:10:54;14.70;99.90
7411;DHT22;3747;48.628;9.058;2023-05-10T09:13:22;14.60;99.90
7411;DHT22;3747;48.628;9.058;2023-05-10T09:15:49;14.60;99.90
7411;DHT22;3747;48.628;9.058;2023-05-10T09:18:16;14.50;99.90
7411;DHT22;3747;48.628;9.058;2023-05-10T09:20:43;14.60;99.90
7411;DHT22;3747;48.628;9.058;2023-05-10T09:23:10;14.80;99.90
7411;DHT22;3747;48.628;9.058;2023-05-10T09:25:37;14.80;99.90
7411;DHT22;3747;48.628;9.058;2023-05-10T09:28:07;14.80;99.90
7411;DHT22;3747;48.628;9.058;2023-05-10T09:30:35;14.90;99.90
7411;DHT22;3747;48.628;9.058;2023-05-10T09:33:02;14.90;99.90
7411;DHT22;3747;48.628;9.058;2023-05-10T09:35:30;14.90;99.90
7411;DHT22;3747;48.628;9.058;2023-05-10T09:38:02;15.20;99.90
7411;DHT22;3747;48.628;9.058;2023-05-10T09:40:29;15.50;99.90
7411;DHT22;3747;48.628;9.058;2023-05-10T09:42:58;16.00;99.90
7411;DHT22;3747;48.628;9.058;2023-05-10T09:45:27;15.70;99.90
7411;DHT22;3747;48.628;9.058;2023-05-10T09:47:54;15.60;99.90
7411;DHT22;3747;48.628;9.058;2023-05-10T09:50:22;15.60;99.90
7411;DHT22;3747;48.628;9.058;2023-05-10T09:52:50;15.60;99.90
7411;DHT22;3747;48.628;9.058;2023-05-10T09:55:18;15.60;99.90
7411;DHT22;3747;48.628;9.058;2023-05-10T09:57:46;15.10;99.90
7411;DHT22;3747;48.628;9.058;2023-05-10T10:00:17;14.90;99.90
7411;DHT22;3747;48.628;9.058;2023-05-10T10:02:47;15.10;99.90
7411;DHT22;3747;48.628;9.058;2023-05-10T10:05:15;15.20;99.90
7411;DHT22;3747;48.628;9.058;2023-05-10T10:07:41;15.40;99.90
7411;DHT22;3747;48.628;9.058;2023-05-10T10:10:09;15.60;99.90
7411;DHT22;3747;48.628;9.058;2023-05-10T10:12:38;15.80;99.90
7411;DHT22;3747;48.628;9.058;2023-05-10T10:15:07;16.10;99.90
7411;DHT22;3747;48.628;9.058;2023-05-10T10:17:35;16.60;99.90
7411;DHT22;3747;48.628;9.058;2023-05-10T10:20:05;17.20;99.90
7411;DHT22;3747;48.628;9.058;2023-05-10T10:22:33;17.40;99.90
7411;DHT22;3747;48.628;9.058;2023-05-10T10:25:00;17.50;99.90
7411;DHT22;3747;48.628;9.058;2023-05-10T10:27:36;17.20;99.90
7411;DHT22;3747;48.628;9.058;2023-05-10T10:30:13;17.90;99.90
7411;DHT22;3747;48.628;9.058;2023-05-10T10:32:59;18.40;99.90
7411;DHT22;3747;48.628;9.058;2023-05-10T10:35:29;18.50;99.90
7411;DHT22;3747;48.628;9.058;2023-05-10T10:37:57;17.90;99.90
7411;DHT22;3747;48.628;9.058;2023-05-10T10:40:26;17.60;99.90
7411;DHT22;3747;48.628;9.058;2023-05-10T10:42:53;17.40;99.90
7411;DHT22;3747;48.628;9.058;2023-05-10T10:45:21;17.40;99.90
7411;DHT22;3747;48.628;9.058;2023-05-10T10:47:48;17.00;99.90
7411;DHT22;3747;48.628;9.058;2023-05-10T10:50:17;15.70;99.90
7411;DHT22;3747;48.628;9.058;2023-05-10T10:52:45;13.90;99.90
7411;DHT22;3747;48.628;9.058;2023-05-10T10:55:16;13.10;99.90
7411;DHT22;3747;48.628;9.058;2023-05-10T10:57:48;12.20;99.90
7411;DHT22;3747;48.628;9.058;2023-05-10T11:00:24;11.60;99.90
7411;DHT22;3747;48.628;9.058;2023-05-10T11:02:52;11.10;99.90
7411;DHT22;3747;48.628;9.058;2023-05-10T11:05:38;11.00;99.90
7411;DHT22;3747;48.628;9.058;2023-05-10T11:08:18;11.00;99.90
7411;DHT22;3747;48.628;9.058;2023-05-10T11:10:54;11.00;99.90
7411;DHT22;3747;48.628;9.058;2023-05-10T11:13:29;11.10;99.90
7411;DHT22;3747;48.628;9.058;2023-05-10T11:15:56;11.20;99.90
7411;DHT22;3747;48.628;9.058;2023-05-10T11:18:25;11.30;99.90
7411;DHT22;3747;48.628;9.058;2023-05-10T11:20:54;11.40;99.90
7411;DHT22;3747;48.628;9.058;2023-05-10T11:23:23;11.40;99.90
7411;DHT22;3747;48.628;9.058;2023-05-10T11:25:50;11.30;99.90
7411;DHT22;3747;48.628;9.058;2023-05-10T11:28:17;11.50;99.90
7411;DHT22;3747;48.628;9.058;2023-05-10T11:30:45;11.70;99.90
7411;DHT22;3747;48.628;9.058;2023-05-10T11:33:15;12.00;99.90
7411;DHT22;3747;48.628;9.058;2023-05-10T11:35:43;12.40;99.90
7411;DHT22;3747;48.628;9.058;2023-05-10T11:38:11;12.60;99.90
7411;DHT22;3747;48.628;9.058;2023-05-10T11:40:40;13.00;99.90
7411;DHT22;3747;48.628;9.058;2023-05-10T11:43:08;13.60;99.90
7411;DHT22;3747;48.628;9.058;2023-05-10T11:45:35;13.90;99.90
7411;DHT22;3747;48.628;9.058;2023-05-10T11:48:02;14.10;99.90
7411;DHT22;3747;48.628;9.058;2023-05-10T11:50:29;14.40;99.90
7411;DHT22;3747;48.628;9.058;2023-05-10T11:52:57;14.70;99.90
7411;DHT22;3747;48.628;9.058;2023-05-10T11:55:24;14.90;99.90
7411;DHT22;3747;48.628;9.058;2023-05-10T11:57:53;14.50;99.90
7411;DHT22;3747;48.628;9.058;2023-05-10T12:00:20;14.60;99.90
7411;DHT22;3747;48.628;9.058;2023-05-10T12:02:47;15.00;99.90
7411;DHT22;3747;48.628;9.058;2023-05-10T12:05:14;15.40;99.90
7411;DHT22;3747;48.628;9.058;2023-05-10T12:07:41;15.50;99.90
7411;DHT22;3747;48.628;9.058;2023-05-10T12:10:08;15.60;99.90
7411;DHT22;3747;48.628;9.058;2023-05-10T12:12:37;15.60;99.90
7411;DHT22;3747;48.628;9.058;2023-05-10T12:15:11;15.70;99.90
7411;DHT22;3747;48.628;9.058;2023-05-10T12:17:38;15.50;99.90
7411;DHT22;3747;48.628;9.058;2023-05-10T12:20:18;15.10;99.90
7411;DHT22;3747;48.628;9.058;2023-05-10T12:22:47;14.80;99.90
7411;DHT22;3747;48.628;9.058;2023-05-10T12:25:14;14.90;99.90
7411;DHT22;3747;48.628;9.058;2023-05-10T12:27:41;14.80;99.90
7411;DHT22;3747;48.628;9.058;2023-05-10T12:30:19;14.70;99.90
7411;DHT22;3747;48.628;9.058;2023-05-10T12:32:46;14.50;99.90
7411;DHT22;3747;48.628;9.058;2023-05-10T12:35:13;14.40;99.90
7411;DHT22;3747;48.628;9.058;2023-05-10T12:37:41;14.70;99.90
7411;DHT22;3747;48.628;9.058;2023-05-10T12:40:09;15.10;99.90
7411;DHT22;3747;48.628;9.058;2023-05-10T12:42:36;15.50;99.90
7411;DHT22;3747;48.628;9.058;2023-05-10T12:45:05;15.80;99.90
7411;DHT22;3747;48.628;9.058;2023-05-10T12:47:33;15.70;99.90
7411;DHT22;3747;48.628;9.058;2023-05-10T12:50:02;15.90;99.90
7411;DHT22;3747;48.628;9.058;2023-05-10T12:52:29;15.80;99.90
7411;DHT22;3747;48.628;9.058;2023-05-10T12:54:57;15.90;99.90
7411;DHT22;3747;48.628;9.058;2023-05-10T12:57:24;16.00;99.90
7411;DHT22;3747;48.628;9.058;2023-05-10T12:59:50;15.90;99.90
7411;DHT22;3747;48.628;9.058;2023-05-10T13:02:17;15.80;99.90
7411;DHT22;3747;48.628;9.058;2023-05-10T13:04:46;15.50;99.90
7411;DHT22;3747;48.628;9.058;2023-05-10T13:07:13;15.50;99.90
7411;DHT22;3747;48.628;9.058;2023-05-10T13:09:40;15.50;99.90
7411;DHT22;3747;48.628;9.058;2023-05-10T13:12:07;15.40;99.90
7411;DHT22;3747;48.628;9.058;2023-05-10T13:14:33;15.40;99.90
7411;DHT22;3747;48.628;9.058;2023-05-10T13:17:00;15.60;99.90
7411;DHT22;3747;48.628;9.058;2023-05-10T13:19:27;15.60;99.90
7411;DHT22;3747;48.628;9.058;2023-05-10T13:21:55;15.40;99.90
7411;DHT22;3747;48.628;9.058;2023-05-10T13:24:21;15.30;99.90
7411;DHT22;3747;48.628;9.058;2023-05-10T13:26:48;15.30;99.90
7411;DHT22;3747;48.628;9.058;2023-05-10T13:29:15;15.30;99.90
7411;DHT22;3747;48.628;9.058;2023-05-10T13:31:43;15.40;99.90
7411;DHT22;3747;48.628;9.058;2023-05-10T13:34:10;15.60;99.90
7411;DHT22;3747;48.628;9.058;2023-05-10T13:36:37;15.70;99.90
7411;DHT22;3747;48.628;9.058;2023-05-10T13:39:05;15.90;99.90
7411;DHT22;3747;48.628;9.058;2023-05-10T13:41:32;16.40;99.90
7411;DHT22;3747;48.628;9.058;2023-05-10T13:43:59;16.70;99.90
7411;DHT22;3747;48.628;9.058;2023-05-10T13:46:26;16.30;99.90
7411;DHT22;3747;48.628;9.058;2023-05-10T13:48:52;16.30;99.90
7411;DHT22;3747;48.628;9.058;2023-05-10T13:51:19;16.10;99.90
7411;DHT22;3747;48.628;9.058;2023-05-10T13:53:46;16.50;99.90
7411;DHT22;3747;48.628;9.058;2023-05-10T13:56:14;16.40;99.90
7411;DHT22;3747;48.628;9.058;2023-05-10T13:58:41;16.30;99.90
7411;DHT22;3747;48.628;9.058;2023-05-10T14:01:08;16.20;99.90
7411;DHT22;3747;48.628;9.058;2023-05-10T14:03:35;15.90;99.90
7411;DHT22;3747;48.628;9.058;2023-05-10T14:06:02;15.50;99.90
7411;DHT22;3747;48.628;9.058;2023-05-10T14:08:29;15.40;99.90
7411;DHT22;3747;48.628;9.058;2023-05-10T14:10:56;15.60;99.90
7411;DHT22;3747;48.628;9.058;2023-05-10T14:13:24;15.70;99.90
7411;DHT22;3747;48.628;9.058;2023-05-10T14:15:52;16.10;99.90
7411;DHT22;3747;48.628;9.058;2023-05-10T14:18:20;16.50;99.90
7411;DHT22;3747;48.628;9.058;2023-05-10T14:20:46;16.10;99.90
7411;DHT22;3747;48.628;9.058;2023-05-10T14:23:13;16.20;99.90
7411;DHT22;3747;48.628;9.058;2023-05-10T14:25:40;16.80;99.90
7411;DHT22;3747;48.628;9.058;2023-05-10T14:28:07;16.90;99.90
7411;DHT22;3747;48.628;9.058;2023-05-10T14:30:35;16.80;99.90
7411;DHT22;3747;48.628;9.058;2023-05-10T14:33:02;17.00;99.90
7411;DHT22;3747;48.628;9.058;2023-05-10T14:35:29;16.70;99.90
7411;DHT22;3747;48.628;9.058;2023-05-10T14:37:57;16.40;99.90
7411;DHT22;3747;48.628;9.058;2023-05-10T14:40:24;16.40;99.90
7411;DHT22;3747;48.628;9.058;2023-05-10T14:42:51;16.20;99.90
7411;DHT22;3747;48.628;9.058;2023-05-10T14:45:18;16.40;99.90
7411;DHT22;3747;48.628;9.058;2023-05-10T14:47:47;16.50;99.90
7411;DHT22;3747;48.628;9.058;2023-05-10T14:50:14;16.30;99.90
7411;DHT22;3747;48.628;9.058;2023-05-10T14:52:40;16.40;99.90
7411;DHT22;3747;48.628;9.058;2023-05-10T14:55:08;16.50;99.90
7411;DHT22;3747;48.628;9.058;2023-05-10T14:57:35;16.70;99.90
7411;DHT22;3747;48.628;9.058;2023-05-10T15:00:02;16.60;99.90
7411;DHT22;3747;48.628;9.058;2023-05-10T15:02:29;16.50;99.90
7411;DHT22;3747;48.628;9.058;2023-05-10T15:04:57;16.40;99.90
7411;DHT22;3747;48.628;9.058;2023-05-10T15:07:23;16.40;99.90
7411;DHT22;3747;48.628;9.058;2023-05-10T15:09:50;16.30;99.90
7411;DHT22;3747;48.628;9.058;2023-05-10T15:12:18;16.40;99.90
7411;DHT22;3747;48.628;9.058;2023-05-10T15:14:44;16.30;99.90
7411;DHT22;3747;48.628;9.058;2023-05-10T15:17:11;16.30;99.90
7411;DHT22;3747;48.628;9.058;2023-05-10T15:19:38;16.20;99.90
7411;DHT22;3747;48.628;9.058;2023-05-10T15:22:06;16.10;99.90
7411;DHT22;3747;48.628;9.058;2023-05-10T15:24:32;16.00;99.90
7411;DHT22;3747;48.628;9.058;2023-05-10T15:26:59;15.90;99.90
7411;DHT22;3747;48.628;9.058;2023-05-10T15:29:26;15.80;99.90
7411;DHT22;3747;48.628;9.058;2023-05-10T15:31:53;15.40;99.90
7411;DHT22;3747;48.628;9.058;2023-05-10T15:34:19;15.40;99.90
7411;DHT22;3747;48.628;9.058;2023-05-10T15:36:46;15.70;99.90
7411;DHT22;3747;48.628;9.058;2023-05-10T15:39:14;15.80;99.90
7411;DHT22;3747;48.628;9.058;2023-05-10T15:41:41;16.10;99.90
7411;DHT22;3747;48.628;9.058;2023-05-10T15:44:07;16.10;99.90
7411;DHT22;3747;48.628;9.058;2023-05-10T15:46:34;15.90;99.90
7411;DHT22;3747;48.628;9.058;2023-05-10T15:49:03;16.00;99.90
7411;DHT22;3747;48.628;9.058;2023-05-10T15:51:30;15.80;99.90
7411;DHT22;3747;48.628;9.058;2023-05-10T15:53:58;15.60;99.90
7411;DHT22;3747;48.628;9.058;2023-05-10T15:56:26;15.70;99.90
7411;DHT22;3747;48.628;9.058;2023-05-10T15:58:52;15.70;99.90
7411;DHT22;3747;48.628;9.058;2023-05-10T16:01:19;15.80;99.90
7411;DHT22;3747;48.628;9.058;2023-05-10T16:03:46;16.00;99.90
7411;DHT22;3747;48.628;9.058;2023-05-10T16:06:12;16.30;99.90
7411;DHT22;3747;48.628;9.058;2023-05-10T16:08:39;16.50;99.90
7411;DHT22;3747;48.628;9.058;2023-05-10T16:11:06;16.50;99.90